Big Lake, AK

05:32 AM AKST ar Chwefror 26, 2017 (GMT -0900)
Burkeshore Drive on Big Lake | | Change Station

Elev 154 ft 61.54 °N, 149.85 °W | Updated 3 minutes ago

Cymylog
Cymylog
23.2 °F
Feels Like 23 °F
N
0.0
Gwynt Cyfnewidiol Gwynt from GwGGw
Gusts 2.0 mph

Heddiw
High -- | Low -- °F
--% Chance of Precip.
Yesterday
High -- | Low -- °F
Precip. -- mod
Gwasgedd 30.40 mod
Gwelededd 10.0 Milltiroedd
Clouds Cymylog 2600 ft
Oerfel Gwynt 23 °F
Gwlithbwynt 22 °F
Lleithder 95%
Rainfall 0.00 mod
Snow Depth Not available.
8:08 AM 6:17 PM
Waning Crescent, 0% visible
METAR PAWS 261416Z AUTO 00000KT 10SM OVC026 M03/M04 A3040 RMK AO1
Gwasgedd 30.40 mod
Gwelededd 10.0 Milltiroedd
Clouds Cymylog 2600 ft
Oerfel Gwynt 23 °F
Gwlithbwynt 22 °F
Lleithder 95%
Rainfall 0.00 mod
Snow Depth Not available.
8:08 AM 6:17 PM
Waning Crescent, 0% visible
METAR PAWS 261416Z AUTO 00000KT 10SM OVC026 M03/M04 A3040 RMK AO1

Get Your Daily Forecast Email!

Thanks for signing up!

Be on the lookout for a verification email in your inbox.

You'll start receiving the daily forecast at 8 AM.

×

10-Day Weather Forecast

Almanac

Astronomy

Feb. 26, 2017 Rise Set
Actual Time
Civil Twilight
Nautical Twilight
Astronomical Twilight
Moon
Length Of Visible Light
Length of Day
Tomorrow will be .
, % of the Moon is Illuminated

Today's Extremes

State Highs State Lows

Community

WunderPhotos

Upload Photos

1,962,540 photos uploaded!

WunderBlog® & News

Nearby

Air Quality

  Air Quality AQ Index Pollutant
Not available.

Snow Depth

Station Depth Elevation

Earthquake Activity

City Distance Mag. Time & Date
Minimum magnitude displayed is 2.5.

Coastal Water Temperatures

Lle Tymheredd

Stations

Nearby Weather Stations

Station Location Temp Oerfel Gwynt Gwlithbwynt Lleithder Gwynt Precip. Elev Diweddarwyd Type
                   

Watches & Warnings

There are currently no watches in effect.